sensor_id;sensor_type;location;lat;lon;timestamp;pressure;altitude;pressure_sealevel;temperature;humidity
45541;BME280;31265;49.680;8.608;2022-08-19T00:00:03;100125.94;;;19.44;100.00
45541;BME280;31265;49.680;8.608;2022-08-19T00:02:32;100133.75;;;19.46;100.00
45541;BME280;31265;49.680;8.608;2022-08-19T00:05:01;100128.22;;;19.48;100.00
45541;BME280;31265;49.680;8.608;2022-08-19T00:07:29;100123.41;;;19.50;100.00
45541;BME280;31265;49.680;8.608;2022-08-19T00:09:57;100123.50;;;19.52;100.00
45541;BME280;31265;49.680;8.608;2022-08-19T00:12:25;100111.63;;;19.54;100.00
45541;BME280;31265;49.680;8.608;2022-08-19T00:14:53;100123.16;;;19.60;100.00
45541;BME280;31265;49.680;8.608;2022-08-19T00:17:22;100105.00;;;19.63;100.00
45541;BME280;31265;49.680;8.608;2022-08-19T00:19:51;100107.19;;;19.65;100.00
45541;BME280;31265;49.680;8.608;2022-08-19T00:22:19;100089.81;;;19.68;100.00
45541;BME280;31265;49.680;8.608;2022-08-19T00:24:47;100090.00;;;19.72;100.00
45541;BME280;31265;49.680;8.608;2022-08-19T00:27:16;100077.47;;;19.75;100.00
45541;BME280;31265;49.680;8.608;2022-08-19T00:29:53;100072.03;;;19.80;100.00
45541;BME280;31265;49.680;8.608;2022-08-19T00:32:21;100069.66;;;19.90;100.00
45541;BME280;31265;49.680;8.608;2022-08-19T00:34:51;100071.28;;;20.27;100.00
45541;BME280;31265;49.680;8.608;2022-08-19T00:37:20;100066.34;;;20.43;100.00
45541;BME280;31265;49.680;8.608;2022-08-19T00:39:49;100058.38;;;20.22;100.00
45541;BME280;31265;49.680;8.608;2022-08-19T00:42:20;100055.66;;;20.08;100.00
45541;BME280;31265;49.680;8.608;2022-08-19T00:44:48;100052.94;;;20.10;100.00
45541;BME280;31265;49.680;8.608;2022-08-19T00:47:17;100049.94;;;19.90;100.00
45541;BME280;31265;49.680;8.608;2022-08-19T00:49:49;100056.31;;;19.90;100.00
45541;BME280;31265;49.680;8.608;2022-08-19T00:52:22;100045.31;;;19.96;100.00
45541;BME280;31265;49.680;8.608;2022-08-19T00:54:51;100047.69;;;20.02;100.00
45541;BME280;31265;49.680;8.608;2022-08-19T00:57:26;100054.78;;;20.03;100.00
45541;BME280;31265;49.680;8.608;2022-08-19T00:59:57;100063.66;;;19.97;100.00
45541;BME280;31265;49.680;8.608;2022-08-19T01:02:29;100066.28;;;20.09;100.00
45541;BME280;31265;49.680;8.608;2022-08-19T01:05:00;100060.31;;;20.01;100.00
45541;BME280;31265;49.680;8.608;2022-08-19T01:07:30;100058.41;;;19.74;100.00
45541;BME280;31265;49.680;8.608;2022-08-19T01:10:06;100061.91;;;19.59;100.00
45541;BME280;31265;49.680;8.608;2022-08-19T01:12:35;100066.41;;;19.50;100.00
45541;BME280;31265;49.680;8.608;2022-08-19T01:15:06;100076.66;;;19.43;100.00
45541;BME280;31265;49.680;8.608;2022-08-19T01:17:35;100078.66;;;19.41;100.00
45541;BME280;31265;49.680;8.608;2022-08-19T01:20:06;100071.69;;;19.42;100.00
45541;BME280;31265;49.680;8.608;2022-08-19T01:22:38;100071.78;;;19.44;100.00
45541;BME280;31265;49.680;8.608;2022-08-19T01:25:09;100055.63;;;19.44;100.00
45541;BME280;31265;49.680;8.608;2022-08-19T01:27:43;100062.69;;;19.45;100.00
45541;BME280;31265;49.680;8.608;2022-08-19T01:30:13;100060.63;;;19.62;100.00
45541;BME280;31265;49.680;8.608;2022-08-19T01:32:42;100072.56;;;19.76;100.00
45541;BME280;31265;49.680;8.608;2022-08-19T01:35:12;100073.97;;;19.61;100.00
45541;BME280;31265;49.680;8.608;2022-08-19T01:37:51;100079.31;;;19.55;100.00
45541;BME280;31265;49.680;8.608;2022-08-19T01:40:22;100067.88;;;19.51;100.00
45541;BME280;31265;49.680;8.608;2022-08-19T01:42:53;100076.84;;;19.47;100.00
45541;BME280;31265;49.680;8.608;2022-08-19T01:45:24;100071.03;;;19.43;100.00
45541;BME280;31265;49.680;8.608;2022-08-19T01:47:54;100074.28;;;19.38;100.00
45541;BME280;31265;49.680;8.608;2022-08-19T01:50:29;100088.91;;;19.34;100.00
45541;BME280;31265;49.680;8.608;2022-08-19T01:52:59;100095.88;;;19.33;100.00
45541;BME280;31265;49.680;8.608;2022-08-19T01:55:34;100085.34;;;19.33;100.00
45541;BME280;31265;49.680;8.608;2022-08-19T01:58:12;100079.09;;;19.35;100.00
45541;BME280;31265;49.680;8.608;2022-08-19T02:00:41;100080.47;;;19.34;100.00
45541;BME280;31265;49.680;8.608;2022-08-19T02:03:10;100077.56;;;19.32;100.00
45541;BME280;31265;49.680;8.608;2022-08-19T02:05:39;100082.34;;;19.29;100.00
45541;BME280;31265;49.680;8.608;2022-08-19T02:08:10;100085.88;;;19.30;100.00
45541;BME280;31265;49.680;8.608;2022-08-19T02:10:40;100082.25;;;19.27;100.00
45541;BME280;31265;49.680;8.608;2022-08-19T02:13:09;100096.22;;;19.25;100.00
45541;BME280;31265;49.680;8.608;2022-08-19T02:15:37;100100.50;;;19.26;100.00
45541;BME280;31265;49.680;8.608;2022-08-19T02:18:06;100108.19;;;19.26;100.00
45541;BME280;31265;49.680;8.608;2022-08-19T02:20:35;100098.41;;;19.27;100.00
45541;BME280;31265;49.680;8.608;2022-08-19T02:23:03;100092.78;;;19.27;100.00
45541;BME280;31265;49.680;8.608;2022-08-19T02:25:41;100086.59;;;19.30;100.00
45541;BME280;31265;49.680;8.608;2022-08-19T02:28:10;100084.09;;;19.37;100.00
45541;BME280;31265;49.680;8.608;2022-08-19T02:30:45;100087.53;;;19.35;100.00
45541;BME280;31265;49.680;8.608;2022-08-19T02:33:14;100074.09;;;19.33;100.00
45541;BME280;31265;49.680;8.608;2022-08-19T02:35:42;100071.94;;;19.32;100.00
45541;BME280;31265;49.680;8.608;2022-08-19T02:38:10;100075.19;;;19.26;100.00
45541;BME280;31265;49.680;8.608;2022-08-19T02:40:56;100084.59;;;19.17;100.00
45541;BME280;31265;49.680;8.608;2022-08-19T02:43:26;100090.66;;;19.11;100.00
45541;BME280;31265;49.680;8.608;2022-08-19T02:45:54;100088.97;;;19.06;100.00
45541;BME280;31265;49.680;8.608;2022-08-19T02:48:24;100087.25;;;18.99;100.00
45541;BME280;31265;49.680;8.608;2022-08-19T02:50:53;100079.88;;;18.92;100.00
45541;BME280;31265;49.680;8.608;2022-08-19T02:53:23;100085.19;;;18.86;100.00
45541;BME280;31265;49.680;8.608;2022-08-19T02:55:53;100082.06;;;18.80;100.00
45541;BME280;31265;49.680;8.608;2022-08-19T02:58:22;100088.22;;;18.76;100.00
45541;BME280;31265;49.680;8.608;2022-08-19T03:00:53;100097.75;;;18.71;100.00
45541;BME280;31265;49.680;8.608;2022-08-19T03:03:22;100096.09;;;18.66;100.00
45541;BME280;31265;49.680;8.608;2022-08-19T03:05:51;100102.44;;;18.66;100.00
45541;BME280;31265;49.680;8.608;2022-08-19T03:08:23;100101.00;;;18.65;100.00
45541;BME280;31265;49.680;8.608;2022-08-19T03:10:53;100105.91;;;18.65;100.00
45541;BME280;31265;49.680;8.608;2022-08-19T03:13:22;100098.81;;;18.64;100.00
45541;BME280;31265;49.680;8.608;2022-08-19T03:15:50;100098.69;;;18.62;100.00
45541;BME280;31265;49.680;8.608;2022-08-19T03:18:19;100096.81;;;18.66;100.00
45541;BME280;31265;49.680;8.608;2022-08-19T03:20:51;100099.56;;;18.78;100.00
45541;BME280;31265;49.680;8.608;2022-08-19T03:23:21;100087.16;;;18.83;100.00
45541;BME280;31265;49.680;8.608;2022-08-19T03:25:51;100086.97;;;18.79;100.00
45541;BME280;31265;49.680;8.608;2022-08-19T03:28:41;100081.25;;;18.77;100.00
45541;BME280;31265;49.680;8.608;2022-08-19T03:31:25;100075.50;;;18.75;100.00
45541;BME280;31265;49.680;8.608;2022-08-19T03:34:17;100077.59;;;18.75;100.00
45541;BME280;31265;49.680;8.608;2022-08-19T03:36:46;100088.09;;;18.60;100.00
45541;BME280;31265;49.680;8.608;2022-08-19T03:39:15;100096.03;;;18.50;100.00
45541;BME280;31265;49.680;8.608;2022-08-19T03:41:45;100100.38;;;18.39;100.00
45541;BME280;31265;49.680;8.608;2022-08-19T03:44:18;100093.22;;;18.36;100.00
45541;BME280;31265;49.680;8.608;2022-08-19T03:46:49;100093.22;;;18.36;100.00
45541;BME280;31265;49.680;8.608;2022-08-19T03:49:18;100094.47;;;18.33;100.00
45541;BME280;31265;49.680;8.608;2022-08-19T03:51:54;100104.34;;;18.34;100.00
45541;BME280;31265;49.680;8.608;2022-08-19T03:54:24;100091.44;;;18.29;100.00
45541;BME280;31265;49.680;8.608;2022-08-19T03:56:54;100093.22;;;18.22;100.00
45541;BME280;31265;49.680;8.608;2022-08-19T03:59:26;100100.47;;;18.14;100.00
45541;BME280;31265;49.680;8.608;2022-08-19T04:01:57;100107.00;;;18.04;100.00
45541;BME280;31265;49.680;8.608;2022-08-19T04:04:26;100118.13;;;18.02;100.00
45541;BME280;31265;49.680;8.608;2022-08-19T04:06:56;100116.44;;;17.97;100.00
45541;BME280;31265;49.680;8.608;2022-08-19T04:09:24;100127.34;;;17.91;100.00
45541;BME280;31265;49.680;8.608;2022-08-19T04:11:54;100120.69;;;17.84;100.00
45541;BME280;31265;49.680;8.608;2022-08-19T04:14:27;100119.97;;;17.84;100.00
45541;BME280;31265;49.680;8.608;2022-08-19T04:16:56;100113.50;;;17.81;100.00
45541;BME280;31265;49.680;8.608;2022-08-19T04:19:26;100113.63;;;17.83;100.00
45541;BME280;31265;49.680;8.608;2022-08-19T04:21:54;100116.91;;;17.80;100.00
45541;BME280;31265;49.680;8.608;2022-08-19T04:24:22;100114.63;;;17.76;100.00
45541;BME280;31265;49.680;8.608;2022-08-19T04:26:50;100120.09;;;17.74;100.00
45541;BME280;31265;49.680;8.608;2022-08-19T04:29:21;100119.50;;;17.76;100.00
45541;BME280;31265;49.680;8.608;2022-08-19T04:31:54;100119.63;;;17.78;100.00
45541;BME280;31265;49.680;8.608;2022-08-19T04:34:24;100112.16;;;17.82;100.00
45541;BME280;31265;49.680;8.608;2022-08-19T04:36:54;100115.91;;;17.87;100.00
45541;BME280;31265;49.680;8.608;2022-08-19T04:39:26;100109.91;;;17.93;100.00
45541;BME280;31265;49.680;8.608;2022-08-19T04:42:16;100116.44;;;17.97;100.00
45541;BME280;31265;49.680;8.608;2022-08-19T04:45:02;100118.13;;;18.02;100.00
45541;BME280;31265;49.680;8.608;2022-08-19T04:47:37;100121.16;;;18.07;100.00
45541;BME280;31265;49.680;8.608;2022-08-19T04:50:24;100120.13;;;18.14;100.00
45541;BME280;31265;49.680;8.608;2022-08-19T04:52:52;100116.91;;;18.19;100.00
45541;BME280;31265;49.680;8.608;2022-08-19T04:55:22;100118.56;;;18.24;100.00
45541;BME280;31265;49.680;8.608;2022-08-19T04:57:52;100113.28;;;18.31;100.00
45541;BME280;31265;49.680;8.608;2022-08-19T05:00:20;100107.88;;;18.35;100.00
45541;BME280;31265;49.680;8.608;2022-08-19T05:02:49;100122.97;;;18.41;100.00
45541;BME280;31265;49.680;8.608;2022-08-19T05:05:18;100126.19;;;18.50;100.00
45541;BME280;31265;49.680;8.608;2022-08-19T05:07:46;100119.63;;;18.59;100.00
45541;BME280;31265;49.680;8.608;2022-08-19T05:10:14;100124.84;;;18.64;100.00
45541;BME280;31265;49.680;8.608;2022-08-19T05:12:42;100125.88;;;18.71;100.00
45541;BME280;31265;49.680;8.608;2022-08-19T05:15:10;100126.31;;;18.79;100.00
45541;BME280;31265;49.680;8.608;2022-08-19T05:17:38;100123.47;;;18.93;100.00
45541;BME280;31265;49.680;8.608;2022-08-19T05:20:29;100123.25;;;19.03;100.00
45541;BME280;31265;49.680;8.608;2022-08-19T05:23:14;100125.13;;;19.12;100.00
45541;BME280;31265;49.680;8.608;2022-08-19T05:25:49;100136.84;;;19.22;100.00
45541;BME280;31265;49.680;8.608;2022-08-19T05:28:18;100146.31;;;19.29;100.00
45541;BME280;31265;49.680;8.608;2022-08-19T05:30:47;100144.00;;;19.39;100.00
45541;BME280;31265;49.680;8.608;2022-08-19T05:33:17;100146.84;;;19.55;100.00
45541;BME280;31265;49.680;8.608;2022-08-19T05:35:47;100151.41;;;19.62;100.00
45541;BME280;31265;49.680;8.608;2022-08-19T05:38:16;100139.22;;;19.71;100.00
45541;BME280;31265;49.680;8.608;2022-08-19T05:40:45;100147.41;;;19.81;100.00
45541;BME280;31265;49.680;8.608;2022-08-19T05:43:15;100145.66;;;19.90;100.00
45541;BME280;31265;49.680;8.608;2022-08-19T05:45:44;100150.41;;;20.17;100.00
45541;BME280;31265;49.680;8.608;2022-08-19T05:48:13;100148.06;;;20.11;100.00
45541;BME280;31265;49.680;8.608;2022-08-19T05:50:41;100147.22;;;20.25;100.00
45541;BME280;31265;49.680;8.608;2022-08-19T05:53:13;100160.50;;;20.38;100.00
45541;BME280;31265;49.680;8.608;2022-08-19T05:55:42;100162.59;;;20.37;100.00
45541;BME280;31265;49.680;8.608;2022-08-19T05:58:11;100165.88;;;20.48;100.00
45541;BME280;31265;49.680;8.608;2022-08-19T06:00:39;100165.97;;;20.66;100.00
45541;BME280;31265;49.680;8.608;2022-08-19T06:03:07;100182.84;;;20.81;100.00
45541;BME280;31265;49.680;8.608;2022-08-19T06:05:40;100179.91;;;20.95;100.00
45541;BME280;31265;49.680;8.608;2022-08-19T06:08:20;100184.53;;;21.04;100.00
45541;BME280;31265;49.680;8.608;2022-08-19T06:11:18;100194.94;;;21.18;100.00
45541;BME280;31265;49.680;8.608;2022-08-19T06:13:48;100197.88;;;21.38;100.00
45541;BME280;31265;49.680;8.608;2022-08-19T06:16:17;100197.16;;;21.37;100.00
45541;BME280;31265;49.680;8.608;2022-08-19T06:18:50;100199.81;;;21.33;100.00
45541;BME280;31265;49.680;8.608;2022-08-19T06:21:20;100200.41;;;21.47;100.00
45541;BME280;31265;49.680;8.608;2022-08-19T06:23:50;100209.69;;;21.68;100.00
45541;BME280;31265;49.680;8.608;2022-08-19T06:26:19;100216.31;;;21.93;100.00
45541;BME280;31265;49.680;8.608;2022-08-19T06:28:48;100225.09;;;22.01;100.00
45541;BME280;31265;49.680;8.608;2022-08-19T06:31:17;100212.19;;;21.78;100.00
45541;BME280;31265;49.680;8.608;2022-08-19T06:33:47;100204.59;;;22.00;100.00
45541;BME280;31265;49.680;8.608;2022-08-19T06:36:18;100208.16;;;21.65;100.00
45541;BME280;31265;49.680;8.608;2022-08-19T06:38:52;100215.69;;;21.76;100.00
45541;BME280;31265;49.680;8.608;2022-08-19T06:41:20;100232.22;;;21.84;100.00
45541;BME280;31265;49.680;8.608;2022-08-19T06:43:48;100231.94;;;21.96;100.00
45541;BME280;31265;49.680;8.608;2022-08-19T06:46:20;100230.72;;;22.19;100.00
45541;BME280;31265;49.680;8.608;2022-08-19T06:48:49;100239.94;;;22.01;100.00
45541;BME280;31265;49.680;8.608;2022-08-19T06:51:20;100234.94;;;22.00;100.00
45541;BME280;31265;49.680;8.608;2022-08-19T06:53:53;100238.66;;;22.22;100.00
45541;BME280;31265;49.680;8.608;2022-08-19T06:56:24;100239.91;;;22.37;100.00
45541;BME280;31265;49.680;8.608;2022-08-19T06:58:57;100241.38;;;22.38;100.00
45541;BME280;31265;49.680;8.608;2022-08-19T07:01:26;100247.34;;;22.66;100.00
45541;BME280;31265;49.680;8.608;2022-08-19T07:03:54;100246.75;;;22.70;100.00
45541;BME280;31265;49.680;8.608;2022-08-19T07:06:24;100252.41;;;22.70;100.00
45541;BME280;31265;49.680;8.608;2022-08-19T07:09:14;100250.31;;;22.70;100.00
45541;BME280;31265;49.680;8.608;2022-08-19T07:11:45;100246.19;;;22.53;100.00
45541;BME280;31265;49.680;8.608;2022-08-19T07:14:16;100238.75;;;23.02;100.00
45541;BME280;31265;49.680;8.608;2022-08-19T07:16:47;100242.53;;;23.31;100.00
45541;BME280;31265;49.680;8.608;2022-08-19T07:19:16;100242.94;;;23.43;100.00
45541;BME280;31265;49.680;8.608;2022-08-19T07:21:45;100238.59;;;23.40;100.00
45541;BME280;31265;49.680;8.608;2022-08-19T07:24:16;100235.56;;;23.34;100.00
45541;BME280;31265;49.680;8.608;2022-08-19T07:26:45;100227.19;;;22.96;100.00
45541;BME280;31265;49.680;8.608;2022-08-19T07:29:19;100241.13;;;22.90;100.00
45541;BME280;31265;49.680;8.608;2022-08-19T07:31:52;100243.84;;;23.28;100.00
45541;BME280;31265;49.680;8.608;2022-08-19T07:34:23;100244.84;;;23.58;100.00
45541;BME280;31265;49.680;8.608;2022-08-19T07:36:53;100242.31;;;24.13;97.01
45541;BME280;31265;49.680;8.608;2022-08-19T07:39:26;100245.56;;;24.75;88.18
45541;BME280;31265;49.680;8.608;2022-08-19T07:41:55;100248.84;;;24.92;88.96
45541;BME280;31265;49.680;8.608;2022-08-19T07:44:25;100248.41;;;25.27;83.54
45541;BME280;31265;49.680;8.608;2022-08-19T07:46:55;100252.94;;;25.39;86.56
45541;BME280;31265;49.680;8.608;2022-08-19T07:49:23;100245.66;;;25.31;83.51
45541;BME280;31265;49.680;8.608;2022-08-19T07:51:53;100245.41;;;25.21;84.04
45541;BME280;31265;49.680;8.608;2022-08-19T07:54:25;100243.44;;;25.28;81.51
45541;BME280;31265;49.680;8.608;2022-08-19T07:56:53;100245.00;;;25.63;79.23
45541;BME280;31265;49.680;8.608;2022-08-19T07:59:23;100240.84;;;25.97;79.10
45541;BME280;31265;49.680;8.608;2022-08-19T08:01:51;100247.13;;;25.63;81.23
45541;BME280;31265;49.680;8.608;2022-08-19T08:04:19;100243.84;;;25.44;78.70
45541;BME280;31265;49.680;8.608;2022-08-19T08:07:05;100231.16;;;24.93;82.32
45541;BME280;31265;49.680;8.608;2022-08-19T08:09:59;100242.00;;;25.01;82.62
45541;BME280;31265;49.680;8.608;2022-08-19T08:12:33;100234.50;;;24.85;84.21
45541;BME280;31265;49.680;8.608;2022-08-19T08:15:06;100246.03;;;24.65;90.16
45541;BME280;31265;49.680;8.608;2022-08-19T08:17:38;100246.53;;;25.12;85.20
45541;BME280;31265;49.680;8.608;2022-08-19T08:20:15;100245.34;;;24.93;82.91
45541;BME280;31265;49.680;8.608;2022-08-19T08:22:45;100237.06;;;25.29;83.46
45541;BME280;31265;49.680;8.608;2022-08-19T08:25:33;100232.41;;;25.14;83.58
45541;BME280;31265;49.680;8.608;2022-08-19T08:28:03;100232.69;;;25.24;80.03
45541;BME280;31265;49.680;8.608;2022-08-19T08:30:31;100233.25;;;25.47;75.98
45541;BME280;31265;49.680;8.608;2022-08-19T08:33:03;100235.00;;;25.32;77.01
45541;BME280;31265;49.680;8.608;2022-08-19T08:35:32;100237.09;;;25.03;77.86
45541;BME280;31265;49.680;8.608;2022-08-19T08:38:01;100237.00;;;24.99;79.80
45541;BME280;31265;49.680;8.608;2022-08-19T08:40:39;100235.94;;;25.13;78.69
45541;BME280;31265;49.680;8.608;2022-08-19T08:43:24;100237.06;;;25.27;78.50
45541;BME280;31265;49.680;8.608;2022-08-19T08:46:01;100247.38;;;25.43;76.48
45541;BME280;31265;49.680;8.608;2022-08-19T08:48:37;100243.22;;;25.48;77.02
45541;BME280;31265;49.680;8.608;2022-08-19T08:51:09;100247.09;;;25.61;75.31
45541;BME280;31265;49.680;8.608;2022-08-19T08:53:40;100241.59;;;25.69;75.16
45541;BME280;31265;49.680;8.608;2022-08-19T08:56:11;100241.75;;;25.75;74.69
45541;BME280;31265;49.680;8.608;2022-08-19T08:58:49;100245.41;;;25.80;72.54
45541;BME280;31265;49.680;8.608;2022-08-19T09:01:20;100249.56;;;26.05;72.07
45541;BME280;31265;49.680;8.608;2022-08-19T09:03:49;100249.13;;;26.18;72.57
45541;BME280;31265;49.680;8.608;2022-08-19T09:06:20;100246.75;;;26.73;69.06
45541;BME280;31265;49.680;8.608;2022-08-19T09:08:58;100246.28;;;27.23;62.57
45541;BME280;31265;49.680;8.608;2022-08-19T09:11:44;100241.81;;;28.01;57.06
45541;BME280;31265;49.680;8.608;2022-08-19T09:14:28;100244.47;;;27.87;58.49
45541;BME280;31265;49.680;8.608;2022-08-19T09:17:16;100243.59;;;27.34;56.93
45541;BME280;31265;49.680;8.608;2022-08-19T09:19:51;100247.63;;;28.62;51.61
45541;BME280;31265;49.680;8.608;2022-08-19T09:22:19;100250.31;;;28.50;52.88
45541;BME280;31265;49.680;8.608;2022-08-19T09:24:53;100244.78;;;28.64;48.22
45541;BME280;31265;49.680;8.608;2022-08-19T09:27:24;100240.44;;;28.59;49.02
45541;BME280;31265;49.680;8.608;2022-08-19T09:30:17;100234.41;;;28.95;48.91
45541;BME280;31265;49.680;8.608;2022-08-19T09:32:48;100234.63;;;29.14;47.54
45541;BME280;31265;49.680;8.608;2022-08-19T09:35:20;100232.81;;;29.53;47.28
45541;BME280;31265;49.680;8.608;2022-08-19T09:37:50;100231.75;;;30.06;43.05
45541;BME280;31265;49.680;8.608;2022-08-19T09:40:25;100231.06;;;30.07;42.75
45541;BME280;31265;49.680;8.608;2022-08-19T09:42:58;100235.50;;;29.35;44.22
45541;BME280;31265;49.680;8.608;2022-08-19T09:45:36;100240.94;;;29.86;43.48
45541;BME280;31265;49.680;8.608;2022-08-19T09:48:04;100227.38;;;29.94;41.76
45541;BME280;31265;49.680;8.608;2022-08-19T09:50:32;100230.66;;;29.54;44.68
45541;BME280;31265;49.680;8.608;2022-08-19T09:53:18;100231.78;;;30.10;42.30
45541;BME280;31265;49.680;8.608;2022-08-19T09:55:51;100222.88;;;29.61;41.66
45541;BME280;31265;49.680;8.608;2022-08-19T09:58:21;100215.41;;;29.21;43.92
45541;BME280;31265;49.680;8.608;2022-08-19T10:00:53;100237.50;;;30.10;42.14
45541;BME280;31265;49.680;8.608;2022-08-19T10:03:22;100227.78;;;30.76;39.02
45541;BME280;31265;49.680;8.608;2022-08-19T10:05:57;100224.97;;;30.93;38.53
45541;BME280;31265;49.680;8.608;2022-08-19T10:08:28;100229.22;;;30.81;39.14
45541;BME280;31265;49.680;8.608;2022-08-19T10:10:57;100221.69;;;29.96;40.10
45541;BME280;31265;49.680;8.608;2022-08-19T10:13:47;100229.88;;;29.43;41.38
45541;BME280;31265;49.680;8.608;2022-08-19T10:16:19;100217.91;;;28.84;43.19
45541;BME280;31265;49.680;8.608;2022-08-19T10:18:53;100215.44;;;28.56;44.37
45541;BME280;31265;49.680;8.608;2022-08-19T10:21:27;100218.09;;;28.41;45.57
45541;BME280;31265;49.680;8.608;2022-08-19T10:24:00;100219.19;;;28.72;43.99
45541;BME280;31265;49.680;8.608;2022-08-19T10:26:32;100217.75;;;28.71;43.70
45541;BME280;31265;49.680;8.608;2022-08-19T10:29:04;100228.69;;;28.33;45.89
45541;BME280;31265;49.680;8.608;2022-08-19T10:31:35;100212.16;;;28.82;44.75
45541;BME280;31265;49.680;8.608;2022-08-19T10:34:23;100214.50;;;29.89;42.44
45541;BME280;31265;49.680;8.608;2022-08-19T10:36:55;100222.75;;;29.46;41.33
45541;BME280;31265;49.680;8.608;2022-08-19T10:39:27;100214.41;;;28.93;42.67
45541;BME280;31265;49.680;8.608;2022-08-19T10:41:57;100211.38;;;29.54;43.19
45541;BME280;31265;49.680;8.608;2022-08-19T10:44:27;100208.06;;;29.91;41.68
45541;BME280;31265;49.680;8.608;2022-08-19T10:46:59;100219.88;;;29.44;40.75
45541;BME280;31265;49.680;8.608;2022-08-19T10:49:27;100213.44;;;29.42;41.42
45541;BME280;31265;49.680;8.608;2022-08-19T10:51:56;100209.16;;;30.75;38.31
45541;BME280;31265;49.680;8.608;2022-08-19T10:54:47;100200.63;;;31.16;36.98
45541;BME280;31265;49.680;8.608;2022-08-19T10:57:38;100199.13;;;30.76;37.01
45541;BME280;31265;49.680;8.608;2022-08-19T11:00:28;100201.25;;;30.59;38.15
45541;BME280;31265;49.680;8.608;2022-08-19T11:02:57;100203.47;;;30.88;37.77
45541;BME280;31265;49.680;8.608;2022-08-19T11:05:25;100185.53;;;30.79;36.26
45541;BME280;31265;49.680;8.608;2022-08-19T11:07:53;100193.47;;;31.15;35.97
45541;BME280;31265;49.680;8.608;2022-08-19T11:10:22;100182.00;;;31.62;35.51
45541;BME280;31265;49.680;8.608;2022-08-19T11:12:50;100186.22;;;31.92;33.42
45541;BME280;31265;49.680;8.608;2022-08-19T11:15:21;100189.16;;;31.76;33.47
45541;BME280;31265;49.680;8.608;2022-08-19T11:17:51;100179.16;;;31.56;34.76
45541;BME280;31265;49.680;8.608;2022-08-19T11:20:21;100162.66;;;31.63;34.83
45541;BME280;31265;49.680;8.608;2022-08-19T11:22:51;100159.81;;;30.99;34.87
45541;BME280;31265;49.680;8.608;2022-08-19T11:25:19;100163.38;;;31.10;33.67
45541;BME280;31265;49.680;8.608;2022-08-19T11:27:48;100149.00;;;31.78;32.76
45541;BME280;31265;49.680;8.608;2022-08-19T11:30:19;100150.94;;;32.28;33.07
45541;BME280;31265;49.680;8.608;2022-08-19T11:32:47;100148.03;;;32.37;33.16
45541;BME280;31265;49.680;8.608;2022-08-19T11:35:17;100149.31;;;32.68;32.54
45541;BME280;31265;49.680;8.608;2022-08-19T11:37:46;100152.16;;;32.70;31.87
45541;BME280;31265;49.680;8.608;2022-08-19T11:40:15;100161.69;;;32.34;32.24
45541;BME280;31265;49.680;8.608;2022-08-19T11:42:43;100156.13;;;31.87;32.52
45541;BME280;31265;49.680;8.608;2022-08-19T11:45:24;100154.66;;;32.04;33.23
45541;BME280;31265;49.680;8.608;2022-08-19T11:47:52;100153.69;;;32.57;32.53
45541;BME280;31265;49.680;8.608;2022-08-19T11:50:22;100143.63;;;32.56;32.78
45541;BME280;31265;49.680;8.608;2022-08-19T11:52:53;100144.38;;;32.54;33.23
45541;BME280;31265;49.680;8.608;2022-08-19T11:55:22;100145.56;;;32.88;32.98
45541;BME280;31265;49.680;8.608;2022-08-19T11:57:50;100143.31;;;31.31;34.59
45541;BME280;31265;49.680;8.608;2022-08-19T12:00:19;100163.38;;;30.98;35.29
45541;BME280;31265;49.680;8.608;2022-08-19T12:02:48;100138.31;;;30.94;35.09
45541;BME280;31265;49.680;8.608;2022-08-19T12:05:16;100144.75;;;31.27;34.47
45541;BME280;31265;49.680;8.608;2022-08-19T12:07:46;100141.69;;;32.11;33.59
45541;BME280;31265;49.680;8.608;2022-08-19T12:10:14;100138.84;;;32.09;33.25
45541;BME280;31265;49.680;8.608;2022-08-19T12:12:46;100137.25;;;32.49;32.80
45541;BME280;31265;49.680;8.608;2022-08-19T12:15:25;100144.69;;;31.79;33.27
45541;BME280;31265;49.680;8.608;2022-08-19T12:18:03;100141.84;;;30.68;35.34
45541;BME280;31265;49.680;8.608;2022-08-19T12:20:34;100145.25;;;30.13;36.44
45541;BME280;31265;49.680;8.608;2022-08-19T12:23:04;100129.91;;;29.49;37.71
45541;BME280;31265;49.680;8.608;2022-08-19T12:25:32;100139.00;;;30.70;35.33
45541;BME280;31265;49.680;8.608;2022-08-19T12:28:02;100136.16;;;31.29;34.28
45541;BME280;31265;49.680;8.608;2022-08-19T12:30:31;100134.75;;;31.18;34.38
45541;BME280;31265;49.680;8.608;2022-08-19T12:32:59;100143.00;;;29.83;36.25
45541;BME280;31265;49.680;8.608;2022-08-19T12:35:27;100139.69;;;29.15;37.18
45541;BME280;31265;49.680;8.608;2022-08-19T12:37:57;100136.59;;;28.93;37.00
45541;BME280;31265;49.680;8.608;2022-08-19T12:40:27;100121.09;;;29.14;36.50
45541;BME280;31265;49.680;8.608;2022-08-19T12:42:55;100137.50;;;30.42;34.19
45541;BME280;31265;49.680;8.608;2022-08-19T12:45:23;100129.69;;;30.70;33.90
45541;BME280;31265;49.680;8.608;2022-08-19T12:47:52;100133.28;;;31.52;33.00
45541;BME280;31265;49.680;8.608;2022-08-19T12:50:21;100134.75;;;31.16;32.59
45541;BME280;31265;49.680;8.608;2022-08-19T12:52:49;100138.13;;;30.14;34.42
45541;BME280;31265;49.680;8.608;2022-08-19T12:55:17;100141.69;;;30.19;34.48
45541;BME280;31265;49.680;8.608;2022-08-19T12:57:47;100143.28;;;30.65;34.28
45541;BME280;31265;49.680;8.608;2022-08-19T13:00:17;100149.03;;;30.81;33.54
45541;BME280;31265;49.680;8.608;2022-08-19T13:02:49;100142.53;;;30.52;34.49
45541;BME280;31265;49.680;8.608;2022-08-19T13:05:21;100145.06;;;29.68;33.72
45541;BME280;31265;49.680;8.608;2022-08-19T13:07:51;100144.88;;;29.44;33.69